West Manchester, Ohio
Current Conditions -  °F | °C
As of 2:35 PM on Friday 31 Oct 2014 (Local Time) from KVES Reporting Station
Drizzle Drizzle  
Wind Chill: 33°   Ceiling: 1500
Heat Index: 39°   Visibility: 10mi
Dew Point: 37°   Wind: 9mph
Humidity: 93%   Direction: 320°NW
Pressure: 29.9"   Gusts: NA
Location:  39.9°N, 84.63°W
Report Text: KVES 311835Z AUTO 32008KT 10SM -DZ BKN015 OVC022 04/03 A2990 RMK AO2
Loading
Personal Weather Stations






























Interactive Weather Map
Tropical Storm Tracking
New forecast layout! Learn more

10-Day Weather Forecast

Advertisements
Track Severe Weather on mobile